Aviation Digital Data Service (ADDS)

Output produced by METARs form (1941 UTC 25 March 2017)
found at http://www.aviationweather.gov/adds/metars/
 
SOCA 251930Z AUTO 04011KT 9999 FEW034 SCT060 OVC076 29/23 Q1009 TEMPO SHRA FEW015TCU
TAF SOCA 251700Z 2518/2618 05016KT 9999 SCT025 BKN050 
     PROB30 
     TEMPO 2518/2524 SHRA FEW015TCU 
     FM260200 08006KT 9999 SCT025 
     PROB30 
     TEMPO 2604/2615 4000 SHRA FEW015TCU BKN020